Cairns AAF (Fort Rucker) Air Field Fort Rucker,Ozark US
ICAO: KOZR
IATA: OZR
Category: Medium
Scheduled Services: No

Elevation: 301 ft
TransAlt. 18000 ft.

Airport Communications:
APP/DEP:121.1
ATIS:111.2
CLNC DEL:118.075
CTAF:135.2
GND:121.9
OPS:126.2
PMSV METRO:134.1
TWR:135.2

KOZR Zoom In..

If you have problems with the map follow the link
https://www.worldairports.se/pages/airport.php?
ICAO=KOZR

Runways:

(A) RW 06 length 4546 ft width 150 ft
ILS 109.70 / hdg 64

(B) RW 18 length 5025 ft width 150 ft
---- / hdg 184

(C) RW 24 length 4546 ft width 150 ft
---- / hdg 244

(D) RW 36 length 5025 ft width 150 ft
---- / hdg 4

Location; KOZR
Day. 14 / Time. 22.56 Zulu
* Altimeter: 29.84
* Temperature: 19° c. 66.2°f.
* Wind from: 120° Speed 06 kn.
Dewpoint: 18° c.
Visibility: 2 Statute Miles.
Clouds: Few 200 ft.
Clouds: Overcast 3000 ft.
Clouds: Few 00 ft.
Clouds: Scattered 00 ft.
Conditions: Light Rain.Conditions: Mist.

KOZR 142256Z 12006KT 2SM -RA BR FEW002 OVC030 19/18 A2984 RMK AO2A RAB23E33DZB33E39RAB39 FEW V SCT SLP106 P0001 T01860183


Wind From 120°
Speed 06 kn.

 
 
jpsmedia.com for Web Design worldairports.se 2018   terms of use